Reno - Stead, NV

2:39 AM PST on December 10, 2019 (GMT -0800)
Reno - Stead

Weather History for KRTS - November, 2019

Change the Weather History Date:

Tuesday, November 19, 2019

  Actual Average (WUND) Record (WUND)
Temperature  
Mean Temperature 48 °F -  
Max Temperature 59 °F - - (-1)
Min Temperature 37 °F - - (-1)
Degree Days  
Heating Degree Days 17    
Moisture  
Dew Point 29 °F    
Average Humidity 49    
Maximum Humidity 93    
Minimum Humidity 21    
Precipitation  
Precipitation 0.03 in - - ()
Sea Level Pressure  
Sea Level Pressure 29.74 in    
Wind  
Wind Speed 11 mph (WNW)    
Max Wind Speed 24 mph    
Max Gust Speed 31 mph    
Visibility 10 miles    
Events Rain    
Averages and records for this station are not official NWS values.
T = Trace of Precipitation, MM = Missing Value Source: NWS Daily Summary

Daily Weather History Graph

Daily Weather History Graph

Search for Another Location

Airport or City:

Astronomy

Nov. 19, 2019 Rise Set
Actual Time 6:48 AM PST 4:41 PM PST
Civil Twilight 6:19 AM PST 5:10 PM PST
Nautical Twilight 5:46 AM PST 5:43 PM PST
Astronomical Twilight 5:14 AM PST 6:15 PM PST
Moon 11:42 PM PST (11/19) 1:02 PM PST (11/19)
Length of Visible Light 10h 51m
Length of Day
9h 52m
Waning Gibbous, 50% of the Moon is Illuminated
Nov 19
Waning Gibbous
Nov 19
Last Quarter
Nov 26
New
Dec 3
First Quarter
Dec 11
Full

Hourly Weather History & Observations

Time (PST) Temp. Windchill Dew Point Humidity Pressure Visibility Wind Dir Wind Speed Gust Speed Precip Events Conditions
12:15 AM 48.2 °F - 21.2 °F 34% 29.91 in 10.0 mi West 6.9 mph 13.8 mph N/A   Clear
12:55 AM 51.8 °F - 21.2 °F 30% 29.87 in 10.0 mi SSE 4.6 mph - N/A   Clear
1:15 AM 55.4 °F - 17.6 °F 23% 29.85 in 10.0 mi SSW 12.7 mph - N/A   Clear
1:35 AM 57.2 °F - 17.6 °F 21% 29.84 in 10.0 mi SSW 16.1 mph 25.3 mph N/A   Clear
1:55 AM 53.6 °F - 19.4 °F 26% 29.85 in 10.0 mi WNW 11.5 mph - N/A   Clear
2:15 AM 55.4 °F - 19.4 °F 25% 29.84 in 10.0 mi West 13.8 mph - N/A   Clear
2:35 AM 50.0 °F - 21.2 °F 32% 29.84 in 10.0 mi WNW 11.5 mph - N/A   Clear
2:55 AM 53.6 °F - 19.4 °F 26% 29.85 in 10.0 mi West 16.1 mph 21.9 mph N/A   Clear
3:15 AM 53.6 °F - 19.4 °F 26% 29.84 in 10.0 mi West 13.8 mph 19.6 mph N/A   Clear
3:30 AM 50.0 °F - 19.4 °F 30% 29.84 in 10.0 mi West 9.2 mph - N/A   Clear
3:55 AM 46.4 °F 41.5 °F 17.6 °F 32% 29.83 in 10.0 mi West 10.4 mph - N/A   Clear
4:15 AM 53.6 °F - 19.4 °F 26% 29.82 in 10.0 mi WSW 18.4 mph 25.3 mph N/A   Clear
4:35 AM 53.6 °F - 21.2 °F 28% 29.81 in 10.0 mi WSW 16.1 mph - N/A   Clear
4:55 AM 53.6 °F - 23.0 °F 30% 29.80 in 10.0 mi SW 16.1 mph - N/A   Clear
5:15 AM 53.6 °F - 23.0 °F 30% 29.79 in 10.0 mi WSW 17.3 mph 26.5 mph N/A   Clear
5:35 AM 51.8 °F - 23.0 °F 33% 29.79 in 10.0 mi WSW 16.1 mph - N/A   Clear
5:55 AM 51.8 °F - 24.8 °F 35% 29.79 in 10.0 mi WSW 15.0 mph 21.9 mph N/A   Clear
6:15 AM 51.8 °F - 26.6 °F 38% 29.79 in 10.0 mi WSW 13.8 mph 21.9 mph N/A   Clear
6:35 AM 51.8 °F - 26.6 °F 38% 29.80 in 10.0 mi WSW 16.1 mph - N/A   Clear
6:55 AM 51.8 °F - 28.4 °F 41% 29.80 in 10.0 mi WSW 12.7 mph - N/A   Partly Cloudy
7:15 AM 51.8 °F - 28.4 °F 41% 29.80 in 10.0 mi West 8.1 mph 15.0 mph N/A   Mostly Cloudy
7:35 AM 50.0 °F - 26.6 °F 40% 29.80 in 10.0 mi WNW 8.1 mph - N/A   Mostly Cloudy
7:55 AM 46.4 °F 42.9 °F 26.6 °F 46% 29.80 in 10.0 mi NNW 6.9 mph - N/A   Partly Cloudy
8:15 AM 46.4 °F - 26.6 °F 46% 29.79 in 10.0 mi Calm Calm - N/A   Clear
8:35 AM 51.8 °F - 30.2 °F 44% 29.79 in 10.0 mi Calm Calm - N/A   Clear
8:55 AM 55.4 °F - 32.0 °F 41% 29.79 in 10.0 mi West 11.5 mph - N/A   Clear
9:15 AM 55.4 °F - 32.0 °F 41% 29.78 in 10.0 mi WSW 8.1 mph 15.0 mph N/A   Clear
9:35 AM 55.4 °F - 33.8 °F 44% 29.78 in 10.0 mi SW 15.0 mph - N/A   Clear
9:55 AM 55.4 °F - 33.8 °F 44% 29.78 in 10.0 mi SW 15.0 mph - N/A   Clear
10:15 AM 59.0 °F - 33.8 °F 39% 29.77 in 10.0 mi NW 9.2 mph - N/A   Mostly Cloudy
10:35 AM 57.2 °F - 32.0 °F 38% 29.77 in 10.0 mi Calm Calm - N/A   Overcast
10:55 AM 57.2 °F - 32.0 °F 38% 29.76 in 10.0 mi NNW 9.2 mph 17.3 mph N/A   Mostly Cloudy
11:15 AM 57.2 °F - 32.0 °F 38% 29.75 in 10.0 mi NNW 6.9 mph - N/A   Mostly Cloudy
11:35 AM 57.2 °F - 32.0 °F 38% 29.73 in 10.0 mi NW 9.2 mph - N/A   Mostly Cloudy
11:55 AM 57.2 °F - 32.0 °F 38% 29.72 in 10.0 mi NW 10.4 mph - N/A   Scattered Clouds
12:15 PM 57.2 °F - 32.0 °F 38% 29.71 in 10.0 mi NW 13.8 mph - N/A   Mostly Cloudy
12:35 PM 59.0 °F - 32.0 °F 36% 29.69 in 10.0 mi NNW 12.7 mph - N/A   Partly Cloudy
12:55 PM 59.0 °F - 32.0 °F 36% 29.69 in 10.0 mi NW 6.9 mph 12.7 mph N/A   Clear
1:15 PM 57.2 °F - 33.8 °F 41% 29.68 in 10.0 mi North 9.2 mph 15.0 mph N/A   Mostly Cloudy
1:35 PM 57.2 °F - 33.8 °F 41% 29.67 in 10.0 mi NW 17.3 mph 23.0 mph N/A   Mostly Cloudy
1:55 PM 55.4 °F - 33.8 °F 44% 29.66 in 10.0 mi NNW 17.3 mph - N/A   Partly Cloudy
2:15 PM 55.4 °F - 33.8 °F 44% 29.66 in 10.0 mi North 18.4 mph - N/A   Partly Cloudy
2:55 PM 51.8 °F - 35.6 °F 54% 29.66 in 10.0 mi Variable 5.8 mph 19.6 mph N/A   Mostly Cloudy
3:15 PM 55.4 °F - 28.4 °F 36% 29.65 in 10.0 mi West 10.4 mph 17.3 mph N/A   Mostly Cloudy
3:35 PM 55.4 °F - 32.0 °F 41% 29.65 in 10.0 mi Calm Calm 15.0 mph N/A   Scattered Clouds
3:55 PM 53.6 °F - 33.8 °F 47% 29.65 in 10.0 mi East 16.1 mph 27.6 mph N/A   Mostly Cloudy
4:15 PM 53.6 °F - 30.2 °F 41% 29.65 in 10.0 mi NW 6.9 mph - N/A   Overcast
4:35 PM 50.0 °F - 32.0 °F 50% 29.65 in 10.0 mi North 19.6 mph - N/A   Overcast
4:55 PM 46.4 °F 39.5 °F 32.0 °F 57% 29.66 in 10.0 mi North 17.3 mph 24.2 mph N/A   Overcast
5:15 PM 42.8 °F 33.5 °F 35.6 °F 76% 29.65 in 9.0 mi North 23.0 mph - N/A Rain Light Rain
5:35 PM 42.8 °F 33.5 °F 33.8 °F 70% 29.66 in 10.0 mi North 23.0 mph 29.9 mph N/A   Mostly Cloudy
5:55 PM 41.0 °F 32.5 °F 33.8 °F 76% 29.66 in 10.0 mi North 17.3 mph 25.3 mph N/A   Partly Cloudy
6:15 PM 42.8 °F 33.3 °F 32.0 °F 66% 29.66 in 10.0 mi North 24.2 mph - N/A   Mostly Cloudy
6:35 PM 41.0 °F 32.5 °F 32.0 °F 70% 29.66 in 10.0 mi North 17.3 mph 31.1 mph N/A   Mostly Cloudy
6:55 PM 42.8 °F 38.0 °F 32.0 °F 66% 29.68 in 10.0 mi North 8.1 mph 18.4 mph N/A   Overcast
7:15 PM 41.0 °F 33.5 °F 32.0 °F 70% 29.68 in 10.0 mi North 13.8 mph 26.5 mph N/A   Overcast
7:35 PM 41.0 °F 33.9 °F 30.2 °F 65% 29.68 in 10.0 mi North 12.7 mph - N/A   Overcast
7:55 PM 41.0 °F 36.4 °F 32.0 °F 70% 29.69 in 10.0 mi North 6.9 mph - N/A   Overcast
8:15 PM 41.0 °F 38.0 °F 32.0 °F 70% 29.69 in 10.0 mi NNW 4.6 mph - N/A   Overcast
8:35 PM 41.0 °F - 32.0 °F 70% 29.69 in 10.0 mi Calm Calm - N/A   Overcast
8:55 PM 41.0 °F 38.0 °F 32.0 °F 70% 29.70 in 10.0 mi NNE 4.6 mph - N/A   Overcast
9:15 PM 41.0 °F 32.8 °F 33.8 °F 76% 29.71 in 6.0 mi NNE 16.1 mph - N/A   Light Drizzle
9:55 PM 39.2 °F 33.0 °F 35.6 °F 87% 29.70 in 3.0 mi NNE 9.2 mph - 0.03 in Rain Light Rain
10:15 PM 37.4 °F 33.8 °F 35.6 °F 93% 29.71 in 10.0 mi NNW 4.6 mph - N/A   Light Drizzle
10:35 PM 37.4 °F 33.8 °F 35.6 °F 93% 29.70 in 10.0 mi NW 4.6 mph - N/A   Light Drizzle
10:50 PM 37.4 °F 32.8 °F 35.6 °F 93% 29.70 in 10.0 mi West 5.8 mph - N/A   Overcast
11:15 PM 37.4 °F 32.8 °F 35.6 °F 93% 29.69 in 10.0 mi WSW 5.8 mph - N/A   Mostly Cloudy
11:35 PM 37.4 °F 32.8 °F 35.6 °F 93% 29.69 in 10.0 mi West 5.8 mph - N/A   Overcast
11:55 PM 37.4 °F 31.4 °F 33.8 °F 87% 29.69 in 10.0 mi NW 8.1 mph - N/A   Mostly Cloudy